KGSHKEKM

Guest
Details From KGSH - GOSHEN MUNI
To KEKM - ELKHART MUNI
Flight Number -
Tags generated
Created
Modified
Stats Distance 15 nm / 27 km
Max Altitude 0 ft / 0 m
Waypoints 2
Social Downloads 0
Likes 0
Share VATSIM

Download

Looking for another format? Having issues loading an existing format? Contact us
Advertisement - Login to hide

Notes

Basic altitude profile: - Ascent Rate: 500ft/min - Ascent Speed: 120kts - Cruise Altitude: 2500ft - Cruise Speed: 225kts - Descent Rate: 300ft/min - Descent Speed: 150kts Options: - Use NATs: yes - Use PACOTS: yes - Use low airways: yes - Use high airways: yes

Route

KGSH KEKM

ID Type Via Altitude Latitude Longitude Leg Dist Tot Dist Heading (true) Name
O KGSH APT - 0 ft / 0 m 41.52690˚ -85.79302˚ - 0 nm - GOSHEN MUNI
O KEKM APT - 0 ft / 0 m 41.71905˚ -86.00099˚ 14 nm 14 nm 321° / 321° ELKHART MUNI

Altitude Profile

Advertisement - Login to hide

KGSH

Details ICAO KGSH
Name GOSHEN MUNI
Region United States
Timezone America/Indiana/Indianapolis (UTC-5.0)
Stats Elevation 827 ft / 252 m (AMSL)
Location 41.526901° -85.793022°
Runways 2
Magnetic Variation 5.309° W

METAR

KGSH 141853Z AUTO 00000KT 10SM BKN043 M06/M13 A3004 RMK AO2 SLP186 T10561133

Decode

TAF

Not found

Departure Runways

ID Width Length Bearing (true) Bearing (mag) Surface Threshold Offset Overrun Length
05 180 ft / 55 m 2,583 ft / 787 m 44.19° 49.50° Grass 0 ft / 0 m 0 ft / 0 m
09 75 ft / 23 m 4,988 ft / 1,520 m 89.28° 94.59° Asphalt 0 ft / 0 m 0 ft / 0 m
23 180 ft / 55 m 2,583 ft / 787 m 224.20° 229.51° Grass 0 ft / 0 m 0 ft / 0 m
27 75 ft / 23 m 4,988 ft / 1,520 m 269.29° 274.60° Asphalt 0 ft / 0 m 0 ft / 0 m

KEKM

Details ICAO KEKM
Name ELKHART MUNI
Region United States
Timezone America/Indiana/Indianapolis (UTC-5.0)
Stats Elevation 778 ft / 237 m (AMSL)
Location 41.719051° -86.000990°
Runways 3
Magnetic Variation 5.182° W

METAR

KEKM 141852Z 00000KT 10SM FEW044 M06/M12 A3004 RMK AO2

Decode

TAF

Not found

Destination Runways

ID Width Length Bearing (true) Bearing (mag) Surface Threshold Offset Overrun Length
08 100 ft / 30 m 2,502 ft / 763 m 75.53° 80.71° Dirt 0 ft / 0 m 0 ft / 0 m
09 120 ft / 37 m 6,485 ft / 1,977 m 89.89° 95.07° Asphalt 0 ft / 0 m 0 ft / 0 m
18 75 ft / 23 m 4,006 ft / 1,221 m 171.97° 177.15° Asphalt 0 ft / 0 m 0 ft / 0 m
26 100 ft / 30 m 2,502 ft / 763 m 255.53° 260.71° Dirt 0 ft / 0 m 0 ft / 0 m
27 120 ft / 37 m 6,485 ft / 1,977 m 269.90° 275.08° Asphalt 0 ft / 0 m 1,200 ft / 366 m
36 75 ft / 23 m 4,006 ft / 1,221 m 351.98° 357.16° Asphalt 0 ft / 0 m 0 ft / 0 m